createdAt,value
2023-05-19T00:04:02.319Z,7.92
2023-05-19T00:06:33.677Z,7.81
2023-05-19T00:13:21.518Z,7.74
2023-05-19T00:20:07.737Z,7.78
2023-05-19T00:22:37.233Z,7.75
2023-05-19T00:29:25.090Z,7.85
2023-05-19T00:31:54.232Z,7.83
2023-05-19T00:38:49.518Z,7.83
2023-05-19T00:41:18.925Z,8.19
2023-05-19T00:43:47.915Z,8.12
2023-05-19T00:50:36.484Z,7.74
2023-05-19T00:53:05.792Z,8.13
2023-05-19T01:04:35.138Z,7.90
2023-05-19T01:07:05.160Z,7.79
2023-05-19T01:09:34.354Z,7.84
2023-05-19T01:16:23.675Z,7.97
2023-05-19T01:19:02.201Z,8.24
2023-05-19T01:26:19.824Z,7.86
2023-05-19T01:29:36.322Z,7.80
2023-05-19T01:32:09.072Z,8.02
2023-05-19T01:34:42.401Z,7.97
2023-05-19T01:41:29.826Z,7.99
2023-05-19T01:43:59.556Z,7.85
2023-05-19T01:50:49.025Z,7.63
2023-05-19T01:53:18.275Z,7.64
2023-05-19T02:00:12.266Z,7.51
2023-05-19T02:07:14.137Z,7.39
2023-05-19T02:09:50.721Z,7.43
2023-05-19T02:16:36.137Z,7.39
2023-05-19T02:19:05.453Z,7.66
2023-05-19T02:25:57.446Z,7.42
2023-05-19T02:28:28.812Z,7.43
2023-05-19T02:30:58.003Z,7.55
2023-05-19T02:33:28.032Z,7.50
2023-05-19T02:35:57.018Z,7.64
2023-05-19T02:38:29.177Z,7.64
2023-05-19T02:40:59.609Z,7.82
2023-05-19T02:47:47.528Z,7.72
2023-05-19T02:50:16.861Z,7.58
2023-05-19T02:57:06.052Z,7.57
2023-05-19T02:59:35.464Z,7.59
2023-05-19T03:06:30.477Z,7.44
2023-05-19T03:13:25.739Z,7.52
2023-05-19T03:15:58.106Z,7.55
2023-05-19T03:22:46.038Z,7.73
2023-05-19T03:25:16.270Z,7.77
2023-05-19T03:32:06.307Z,7.77
2023-05-19T03:34:35.872Z,7.62
2023-05-19T03:37:05.083Z,7.59
2023-05-19T03:39:34.175Z,7.51
2023-05-19T03:42:03.368Z,7.59
2023-05-19T03:44:32.362Z,7.57
2023-05-19T03:47:01.581Z,7.55
2023-05-19T03:49:32.186Z,7.58
2023-05-19T03:52:03.635Z,7.67
2023-05-19T03:58:52.006Z,7.70
2023-05-19T04:01:21.410Z,7.65
2023-05-19T04:08:10.596Z,7.66
2023-05-19T04:10:40.006Z,7.85
2023-05-19T04:17:35.107Z,7.67
2023-05-19T04:20:06.286Z,7.94
2023-05-19T04:22:35.772Z,7.95
2023-05-19T04:25:08.041Z,8.00
2023-05-19T04:27:39.232Z,8.13
2023-05-19T04:34:20.281Z,8.10
2023-05-19T04:36:51.666Z,8.15
2023-05-19T04:43:30.072Z,8.07
2023-05-19T04:45:59.890Z,8.05
2023-05-19T04:51:43.129Z,8.02
2023-05-19T04:58:31.906Z,8.15
2023-05-19T05:09:20.396Z,7.96
2023-05-19T05:11:50.087Z,7.94
2023-05-19T05:18:47.342Z,7.99
2023-05-19T05:21:17.191Z,7.91
2023-05-19T05:23:46.900Z,7.91
2023-05-19T05:26:19.919Z,7.81
2023-05-19T05:28:49.287Z,7.72
2023-05-19T05:31:18.381Z,7.65
2023-05-19T05:33:50.357Z,7.64
2023-05-19T05:36:19.644Z,7.67
2023-05-19T05:38:49.247Z,7.68
2023-05-19T05:41:18.553Z,7.77
2023-05-19T05:43:47.846Z,7.76
2023-05-19T05:46:17.231Z,7.85
2023-05-19T05:48:46.750Z,7.89
2023-05-19T05:51:18.205Z,7.99
2023-05-19T05:53:53.849Z,8.06
2023-05-19T06:05:06.064Z,8.17
2023-05-19T06:07:38.172Z,8.31
2023-05-19T06:14:25.004Z,8.37
2023-05-19T06:16:56.051Z,8.49
2023-05-19T06:19:26.397Z,8.47
2023-05-19T06:22:01.813Z,8.80
2023-05-19T06:28:51.003Z,9.25
2023-05-19T06:35:40.093Z,9.82
2023-05-19T06:38:09.595Z,10.20
2023-05-19T06:45:00.562Z,9.82
2023-05-19T06:47:30.670Z,9.86
2023-05-19T06:50:00.456Z,9.99
2023-05-19T06:56:41.970Z,10.07
2023-05-19T06:59:12.082Z,10.85
2023-05-19T07:06:02.316Z,12.34
2023-05-19T07:08:31.392Z,11.72
2023-05-19T07:15:19.246Z,11.85
2023-05-19T07:22:07.950Z,11.27
2023-05-19T07:24:37.219Z,12.21
2023-05-19T07:31:19.138Z,13.41
2023-05-19T07:33:48.336Z,13.37
2023-05-19T07:39:21.403Z,14.06
2023-05-19T07:46:09.287Z,13.22
2023-05-19T07:48:39.108Z,12.84
2023-05-19T07:51:10.561Z,13.22
2023-05-19T07:53:39.974Z,13.81
2023-05-19T07:56:10.802Z,14.44
2023-05-19T08:07:41.071Z,14.88
2023-05-19T08:10:11.295Z,14.79
2023-05-19T08:17:00.585Z,14.45
2023-05-19T08:19:29.868Z,14.16
2023-05-19T08:22:01.624Z,14.42
2023-05-19T08:24:31.227Z,14.64
2023-05-19T08:27:00.342Z,14.87
2023-05-19T08:29:29.566Z,14.87
2023-05-19T08:32:00.681Z,15.44
2023-05-19T08:34:30.097Z,15.26
2023-05-19T08:37:00.011Z,15.41
2023-05-19T08:39:29.392Z,16.29
2023-05-19T08:42:00.750Z,15.67
2023-05-19T08:44:31.375Z,15.49
2023-05-19T08:47:05.388Z,15.43
2023-05-19T08:49:35.599Z,15.59
2023-05-19T08:52:10.535Z,15.49
2023-05-19T08:54:45.976Z,15.43
2023-05-19T08:57:15.888Z,14.93
2023-05-19T08:59:45.492Z,15.60
2023-05-19T09:02:16.651Z,15.35
2023-05-19T09:04:48.306Z,15.06
2023-05-19T09:07:18.010Z,14.37
2023-05-19T09:09:47.192Z,14.57
2023-05-19T09:12:16.699Z,14.07
2023-05-19T09:14:47.206Z,14.54
2023-05-19T09:17:19.287Z,14.43
2023-05-19T09:19:49.719Z,14.10
2023-05-19T09:22:21.167Z,14.27
2023-05-19T09:24:50.361Z,14.14
2023-05-19T09:27:24.577Z,14.14
2023-05-19T09:29:54.800Z,14.05
2023-05-19T09:32:28.734Z,13.54
2023-05-19T09:34:59.356Z,13.54
2023-05-19T09:37:30.471Z,13.96
2023-05-19T09:40:01.721Z,14.47
2023-05-19T09:42:31.020Z,14.14
2023-05-19T09:45:04.098Z,13.73
2023-05-19T09:47:38.579Z,13.66
2023-05-19T09:50:10.815Z,13.82
2023-05-19T09:52:41.215Z,13.83
2023-05-19T09:55:12.464Z,13.87
2023-05-19T09:57:42.196Z,14.03
2023-05-19T10:00:19.257Z,13.59
2023-05-19T10:02:51.360Z,13.34
2023-05-19T10:05:21.733Z,13.22
2023-05-19T10:07:52.896Z,13.38
2023-05-19T10:10:23.516Z,13.74
2023-05-19T10:12:53.217Z,14.37
2023-05-19T10:15:23.254Z,15.19
2023-05-19T10:17:54.524Z,15.13
2023-05-19T10:20:26.543Z,15.29
2023-05-19T10:22:58.103Z,15.01
2023-05-19T10:25:29.751Z,14.57
2023-05-19T10:28:03.151Z,14.95
2023-05-19T10:30:37.567Z,15.41
2023-05-19T10:33:14.202Z,14.49
2023-05-19T10:36:11.499Z,14.91
2023-05-19T10:43:09.106Z,15.70
2023-05-19T10:50:00.238Z,15.87
2023-05-19T10:52:33.586Z,16.27
2023-05-19T10:59:45.339Z,17.04
2023-05-19T11:02:41.151Z,16.68
2023-05-19T11:09:40.008Z,15.85
2023-05-19T11:12:12.763Z,15.95
2023-05-19T11:19:02.806Z,14.89
2023-05-19T11:21:45.264Z,15.29
2023-05-19T11:24:38.262Z,15.16
2023-05-19T11:27:28.724Z,14.82
2023-05-19T11:34:11.753Z,15.00
2023-05-19T11:41:03.317Z,15.69
2023-05-19T11:43:36.409Z,15.64
2023-05-19T11:50:26.304Z,16.28
2023-05-19T11:52:57.640Z,16.92
2023-05-19T11:59:53.387Z,16.34
2023-05-19T12:02:28.486Z,16.01
2023-05-19T12:05:01.415Z,15.88
2023-05-19T12:11:45.692Z,16.20
2023-05-19T12:18:40.533Z,15.85
2023-05-19T12:25:36.539Z,16.46
2023-05-19T12:28:07.402Z,16.09
2023-05-19T12:30:37.442Z,16.52
2023-05-19T12:37:25.353Z,16.40
2023-05-19T12:39:57.012Z,16.34
2023-05-19T12:46:47.736Z,16.36
2023-05-19T12:49:18.676Z,16.46
2023-05-19T12:56:16.665Z,15.75
2023-05-19T13:07:13.668Z,15.72
2023-05-19T13:09:46.429Z,16.35
2023-05-19T13:16:38.322Z,16.49
2023-05-19T13:23:20.731Z,16.38
2023-05-19T13:25:50.036Z,17.04
2023-05-19T13:32:39.034Z,16.28
2023-05-19T13:35:09.339Z,16.49
2023-05-19T13:42:00.271Z,17.14
2023-05-19T13:48:56.829Z,16.58
2023-05-19T13:51:31.587Z,16.87
2023-05-19T13:58:17.375Z,16.81
2023-05-19T14:00:48.621Z,16.57
2023-05-19T14:07:39.546Z,17.20
2023-05-19T14:10:11.302Z,17.10
2023-05-19T14:12:59.549Z,17.13
2023-05-19T14:15:32.837Z,17.43
2023-05-19T14:18:02.791Z,17.19
2023-05-19T14:20:34.558Z,17.41
2023-05-19T14:23:05.769Z,17.03
2023-05-19T14:25:35.245Z,17.26
2023-05-19T14:28:04.874Z,17.57
2023-05-19T14:30:34.358Z,17.52
2023-05-19T14:33:03.904Z,17.38
2023-05-19T14:35:33.668Z,17.16
2023-05-19T14:38:10.151Z,17.16
2023-05-19T14:44:45.500Z,17.12
2023-05-19T14:47:15.049Z,17.03
2023-05-19T14:54:04.393Z,16.90
2023-05-19T14:56:34.112Z,16.68
2023-05-19T15:03:24.372Z,17.01
2023-05-19T15:05:53.938Z,16.84
2023-05-19T15:08:23.841Z,17.05
2023-05-19T15:15:01.157Z,16.92
2023-05-19T15:17:31.799Z,16.61
2023-05-19T15:24:19.746Z,17.16
2023-05-19T15:26:49.145Z,17.30
2023-05-19T15:33:37.937Z,16.69
2023-05-19T15:36:08.083Z,16.91
2023-05-19T15:38:41.751Z,16.97
2023-05-19T15:45:23.106Z,17.07
2023-05-19T15:47:52.620Z,16.96
2023-05-19T15:54:41.951Z,16.66
2023-05-19T15:57:11.562Z,16.64
2023-05-19T15:59:41.170Z,16.19
2023-05-19T16:02:12.364Z,15.82
2023-05-19T16:04:42.018Z,15.79
2023-05-19T16:07:11.212Z,15.81
2023-05-19T16:09:41.945Z,15.71
2023-05-19T16:12:11.351Z,15.36
2023-05-19T16:14:40.462Z,15.41
2023-05-19T16:17:12.101Z,15.41
2023-05-19T16:19:41.709Z,15.43
2023-05-19T16:22:10.693Z,15.47
2023-05-19T16:24:41.636Z,15.44
2023-05-19T16:27:10.842Z,15.42
2023-05-19T16:29:40.634Z,15.30
2023-05-19T16:36:23.010Z,15.28
2023-05-19T16:38:52.364Z,15.29
2023-05-19T16:45:47.242Z,16.37
2023-05-19T16:48:16.695Z,16.36
2023-05-19T16:54:57.795Z,16.25
2023-05-19T16:57:27.201Z,16.27
2023-05-19T16:59:56.476Z,16.08
2023-05-19T17:11:29.328Z,15.16
2023-05-19T17:13:58.733Z,15.25
2023-05-19T17:20:46.596Z,15.27
2023-05-19T17:23:15.786Z,15.12
2023-05-19T17:25:44.981Z,15.18
2023-05-19T17:28:15.820Z,15.17
2023-05-19T17:30:45.219Z,14.97
2023-05-19T17:33:14.404Z,14.87
2023-05-19T17:35:43.506Z,14.83
2023-05-19T17:38:12.704Z,14.78
2023-05-19T17:40:42.161Z,14.78
2023-05-19T17:47:31.302Z,14.64
2023-05-19T17:50:00.282Z,14.56
2023-05-19T17:56:48.958Z,14.36
2023-05-19T17:59:18.795Z,14.29
2023-05-19T18:10:41.887Z,14.23
2023-05-19T18:17:36.796Z,14.07
2023-05-19T18:20:07.242Z,14.06
2023-05-19T18:26:56.422Z,13.91
2023-05-19T18:29:25.721Z,13.91
2023-05-19T18:31:54.852Z,13.82
2023-05-19T18:34:24.248Z,13.86
2023-05-19T18:36:53.312Z,13.85
2023-05-19T18:39:22.402Z,13.66
2023-05-19T18:41:51.601Z,13.64
2023-05-19T18:44:22.127Z,13.62
2023-05-19T18:46:51.329Z,13.56
2023-05-19T18:53:35.299Z,13.45
2023-05-19T18:56:05.611Z,13.44
2023-05-19T19:02:49.935Z,13.55
2023-05-19T19:05:19.477Z,13.49
2023-05-19T19:11:38.373Z,13.56
2023-05-19T19:18:34.788Z,13.52
2023-05-19T19:21:06.050Z,13.51
2023-05-19T19:27:53.733Z,13.53
2023-05-19T19:30:22.927Z,13.51
2023-05-19T19:32:52.364Z,13.52
2023-05-19T19:35:22.856Z,13.55
2023-05-19T19:37:52.566Z,13.51
2023-05-19T19:40:21.661Z,13.49
2023-05-19T19:42:50.757Z,13.52
2023-05-19T19:45:21.193Z,13.57
2023-05-19T19:47:52.189Z,13.49
2023-05-19T19:54:41.212Z,13.56
2023-05-19T19:57:10.296Z,13.50
2023-05-19T20:03:58.349Z,13.46
2023-05-19T20:06:27.768Z,13.46
2023-05-19T20:12:33.352Z,13.51
2023-05-19T20:19:28.634Z,13.52
2023-05-19T20:21:58.072Z,13.52
2023-05-19T20:28:54.220Z,13.43
2023-05-19T20:35:36.852Z,13.48
2023-05-19T20:38:06.050Z,13.46
2023-05-19T20:44:50.014Z,13.45
2023-05-19T20:47:20.038Z,13.46
2023-05-19T20:53:56.015Z,13.36
2023-05-19T21:00:58.058Z,13.18
2023-05-19T21:03:27.609Z,13.08
2023-05-19T21:05:56.611Z,13.02
2023-05-19T21:08:26.012Z,12.95
2023-05-19T21:15:08.336Z,12.88
2023-05-19T21:17:38.775Z,13.00
2023-05-19T21:20:09.409Z,12.98
2023-05-19T21:22:38.589Z,12.98
2023-05-19T21:25:08.902Z,12.97
2023-05-19T21:27:39.648Z,12.92
2023-05-19T21:30:10.172Z,12.83
2023-05-19T21:32:40.855Z,12.71
2023-05-19T21:35:10.714Z,12.65
2023-05-19T21:37:39.891Z,12.56
2023-05-19T21:40:10.653Z,12.49
2023-05-19T21:42:39.839Z,12.41
2023-05-19T21:45:10.279Z,12.31
2023-05-19T21:47:43.085Z,12.32
2023-05-19T21:50:16.648Z,12.44
2023-05-19T21:57:04.815Z,12.22
2023-05-19T21:59:33.702Z,12.14
2023-05-19T22:10:42.368Z,11.91
2023-05-19T22:17:23.879Z,11.78
2023-05-19T22:19:53.177Z,11.68
2023-05-19T22:26:36.772Z,11.45
2023-05-19T22:29:06.238Z,11.33
2023-05-19T22:35:55.121Z,11.19
2023-05-19T22:42:45.538Z,11.00
2023-05-19T22:45:14.630Z,10.91
2023-05-19T22:52:01.770Z,10.72
2023-05-19T22:54:31.376Z,10.74
2023-05-19T23:01:31.693Z,10.55
2023-05-19T23:13:03.853Z,10.42
2023-05-19T23:15:33.409Z,10.34
2023-05-19T23:22:17.650Z,10.42
2023-05-19T23:24:46.840Z,10.42
2023-05-19T23:27:15.921Z,10.34
2023-05-19T23:29:49.515Z,10.31
2023-05-19T23:32:18.713Z,10.32
2023-05-19T23:34:49.033Z,10.43
2023-05-19T23:37:19.667Z,10.48
2023-05-19T23:39:48.964Z,10.51
2023-05-19T23:42:18.364Z,10.25
2023-05-19T23:44:47.565Z,10.19
2023-05-19T23:47:16.849Z,10.01
2023-05-19T23:49:46.168Z,9.98
2023-05-19T23:52:15.569Z,10.33
2023-05-19T23:54:46.198Z,9.94
2023-05-19T23:57:15.395Z,10.05
2023-05-19T23:59:44.709Z,9.98
